createdAt,value
2019-03-04T00:03:00.272Z,8.87
2019-03-04T00:13:05.661Z,12.60
2019-03-04T00:23:11.196Z,11.13
2019-03-04T00:33:16.878Z,13.90
2019-03-04T00:43:22.532Z,10.57
2019-03-04T00:53:28.254Z,12.43
2019-03-04T01:03:34.073Z,10.93
2019-03-04T01:13:39.038Z,11.90
2019-03-04T01:23:44.026Z,9.77
2019-03-04T01:33:49.215Z,13.23
2019-03-04T01:43:54.199Z,10.50
2019-03-04T01:54:01.704Z,12.43
2019-03-04T02:04:07.649Z,9.43
2019-03-04T02:14:13.251Z,9.97
2019-03-04T02:24:24.074Z,11.47
2019-03-04T02:34:30.598Z,10.67
2019-03-04T02:44:35.592Z,13.13
2019-03-04T02:54:46.595Z,8.77
2019-03-04T03:04:53.034Z,9.90
2019-03-04T03:14:59.021Z,9.43
2019-03-04T03:25:05.133Z,7.13
2019-03-04T03:35:10.742Z,10.13
2019-03-04T03:45:17.277Z,9.33
2019-03-04T03:55:28.310Z,10.90
2019-03-04T04:05:35.206Z,7.43
2019-03-04T04:15:42.038Z,8.03
2019-03-04T04:25:48.881Z,5.50
2019-03-04T04:35:54.767Z,7.97
2019-03-04T04:46:00.609Z,6.30
2019-03-04T04:56:06.579Z,12.70
2019-03-04T05:06:13.109Z,8.27
2019-03-04T05:16:19.155Z,5.60
2019-03-04T05:26:25.005Z,6.33
2019-03-04T05:36:30.810Z,4.53
2019-03-04T05:46:36.510Z,6.80
2019-03-04T05:56:42.407Z,6.77
2019-03-04T06:06:49.904Z,7.87
2019-03-04T06:16:55.761Z,7.00
2019-03-04T06:27:01.808Z,6.97
2019-03-04T06:37:07.674Z,9.20
2019-03-04T06:47:13.603Z,4.80
2019-03-04T06:57:28.188Z,5.23
2019-03-04T07:07:28.369Z,7.37
2019-03-04T07:17:34.679Z,4.20
2019-03-04T07:27:40.495Z,6.73
2019-03-04T07:37:46.382Z,6.03
2019-03-04T07:47:52.195Z,5.27
2019-03-04T07:57:58.030Z,5.83
2019-03-04T08:08:08.470Z,6.63
2019-03-04T08:18:14.215Z,4.13
2019-03-04T08:28:19.952Z,5.63
2019-03-04T08:38:25.638Z,5.93
2019-03-04T08:48:31.725Z,5.90
2019-03-04T08:58:37.562Z,5.40
2019-03-04T09:08:46.520Z,5.77
2019-03-04T09:18:52.304Z,4.93
2019-03-04T09:28:58.325Z,4.70
2019-03-04T09:39:05.852Z,10.40
2019-03-04T09:49:13.298Z,6.20
2019-03-04T09:59:19.303Z,4.53
2019-03-04T10:09:37.313Z,4.73
2019-03-04T10:19:48.765Z,6.20
2019-03-04T10:30:18.692Z,5.87
2019-03-04T10:41:36.811Z,4.07
2019-03-04T10:46:59.293Z,4.67
2019-03-04T10:52:05.412Z,5.83
2019-03-04T10:57:11.103Z,3.20
2019-03-04T11:02:16.868Z,4.03
2019-03-04T11:07:23.160Z,3.37
2019-03-04T11:12:28.874Z,3.10
2019-03-04T11:17:34.647Z,3.33
2019-03-04T11:22:40.503Z,5.77
2019-03-04T11:27:46.359Z,2.73
2019-03-04T11:32:53.131Z,3.67
2019-03-04T11:37:58.866Z,4.30
2019-03-04T11:43:05.072Z,2.93
2019-03-04T11:48:10.937Z,3.53
2019-03-04T11:53:16.828Z,3.03
2019-03-04T11:58:22.734Z,4.47
2019-03-04T12:03:28.509Z,2.70
2019-03-04T12:08:34.367Z,3.23
2019-03-04T12:13:40.084Z,5.13
2019-03-04T12:18:45.863Z,1.40
2019-03-04T12:23:51.725Z,1.20
2019-03-04T12:28:57.555Z,0.97
2019-03-04T12:34:03.426Z,2.50
2019-03-04T12:39:11.712Z,2.80
2019-03-04T12:55:08.243Z,0.73
2019-03-04T13:00:34.517Z,1.10
2019-03-04T13:05:41.358Z,2.30
2019-03-04T13:10:47.092Z,2.47
2019-03-04T13:15:52.915Z,1.67
2019-03-04T13:20:59.757Z,0.90
2019-03-04T13:26:05.697Z,2.77
2019-03-04T13:31:12.526Z,2.10
2019-03-04T13:36:18.384Z,1.53
2019-03-04T13:41:24.147Z,1.87
2019-03-04T13:46:29.942Z,0.90
2019-03-04T13:51:35.661Z,1.67
2019-03-04T13:56:41.455Z,4.43
2019-03-04T14:01:47.189Z,3.07
2019-03-04T14:06:53.628Z,1.70
2019-03-04T14:11:59.476Z,2.47
2019-03-04T14:17:05.222Z,1.40
2019-03-04T14:22:10.877Z,2.13
2019-03-04T14:27:16.518Z,1.67
2019-03-04T14:32:22.298Z,1.30
2019-03-04T14:37:28.079Z,0.80
2019-03-04T14:42:33.792Z,2.07
2019-03-04T14:47:39.592Z,2.10
2019-03-04T14:52:45.677Z,0.80
2019-03-04T14:57:51.457Z,1.20
2019-03-04T15:02:57.319Z,1.43
2019-03-04T15:08:03.113Z,1.77
2019-03-04T15:13:10.230Z,1.67
2019-03-04T15:18:15.910Z,1.50
2019-03-04T15:23:21.534Z,0.83
2019-03-04T15:28:27.387Z,1.10
2019-03-04T15:33:33.118Z,1.90
2019-03-04T15:38:38.900Z,1.80
2019-03-04T15:43:44.692Z,0.80
2019-03-04T15:48:50.447Z,0.97
2019-03-04T15:53:56.217Z,0.67
2019-03-04T15:59:02.087Z,3.93
2019-03-04T16:04:07.910Z,0.70
2019-03-04T16:09:16.756Z,2.40
2019-03-04T16:14:22.613Z,2.20
2019-03-04T16:19:28.616Z,2.60
2019-03-04T16:24:34.653Z,1.70
2019-03-04T16:29:40.552Z,1.63
2019-03-04T16:34:46.511Z,2.80
2019-03-04T16:39:52.667Z,0.90
2019-03-04T16:44:58.530Z,3.87
2019-03-04T16:50:05.894Z,3.27
2019-03-04T16:55:14.150Z,2.47
2019-03-04T17:00:21.499Z,3.27
2019-03-04T17:05:27.627Z,2.03
2019-03-04T17:10:33.403Z,0.73
2019-03-04T17:15:39.157Z,0.87
2019-03-04T17:20:44.932Z,0.70
2019-03-04T17:25:50.694Z,0.77
2019-03-04T17:30:56.460Z,0.90
2019-03-04T17:36:02.736Z,0.77
2019-03-04T17:41:08.660Z,0.83
2019-03-04T17:46:14.978Z,1.53
2019-03-04T17:51:20.761Z,1.47
2019-03-04T17:56:26.684Z,1.80
2019-03-04T18:01:32.485Z,1.20
2019-03-04T18:06:38.360Z,1.23
2019-03-04T18:11:44.326Z,1.80
2019-03-04T18:16:51.130Z,2.37
2019-03-04T18:21:56.894Z,1.63
2019-03-04T18:27:02.697Z,1.43
2019-03-04T18:32:29.066Z,3.40
2019-03-04T18:38:03.649Z,2.43
2019-03-04T18:43:29.327Z,2.30
2019-03-04T18:48:56.899Z,1.23
2019-03-04T18:54:04.888Z,1.57
2019-03-04T18:59:10.685Z,2.37
2019-03-04T19:04:16.408Z,1.53
2019-03-04T19:09:22.159Z,2.30
2019-03-04T19:14:27.865Z,1.97
2019-03-04T19:19:33.478Z,2.00
2019-03-04T19:24:39.155Z,3.37
2019-03-04T19:29:45.918Z,1.43
2019-03-04T19:34:51.621Z,2.57
2019-03-04T19:39:57.425Z,3.20
2019-03-04T19:45:03.164Z,1.63
2019-03-04T19:50:11.200Z,2.77
2019-03-04T19:55:18.443Z,2.40
2019-03-04T20:00:32.312Z,3.63
2019-03-04T20:05:38.119Z,4.20
2019-03-04T20:10:43.871Z,3.50
2019-03-04T20:15:49.648Z,3.47
2019-03-04T20:20:55.412Z,3.40
2019-03-04T20:26:02.555Z,4.90
2019-03-04T20:31:09.433Z,3.43
2019-03-04T20:36:15.194Z,3.10
2019-03-04T20:41:20.988Z,4.87
2019-03-04T20:46:26.696Z,2.90
2019-03-04T20:51:32.421Z,2.50
2019-03-04T20:56:38.190Z,2.33
2019-03-04T21:01:44.123Z,3.57
2019-03-04T21:06:50.111Z,3.70
2019-03-04T21:11:55.874Z,3.47
2019-03-04T21:17:01.684Z,10.50
2019-03-04T21:22:07.895Z,8.57
2019-03-04T21:27:13.742Z,4.40
2019-03-04T21:32:28.461Z,4.87
2019-03-04T21:37:37.185Z,3.80
2019-03-04T21:42:48.996Z,4.30
2019-03-04T21:48:09.581Z,5.53
2019-03-04T21:53:27.367Z,5.37
2019-03-04T21:58:33.728Z,5.43
2019-03-04T22:03:40.516Z,3.80
2019-03-04T22:08:46.300Z,3.27
2019-03-04T22:13:52.065Z,6.80
2019-03-04T22:18:57.831Z,5.80
2019-03-04T22:24:03.540Z,3.90
2019-03-04T22:29:10.793Z,5.13
2019-03-04T22:34:16.553Z,3.77
2019-03-04T22:39:22.353Z,5.20
2019-03-04T22:44:28.170Z,4.33
2019-03-04T22:49:33.958Z,2.73
2019-03-04T22:54:39.696Z,6.23
2019-03-04T22:59:45.478Z,7.17
2019-03-04T23:04:51.188Z,4.00
2019-03-04T23:09:59.245Z,6.73
2019-03-04T23:15:07.941Z,5.53
2019-03-04T23:20:13.620Z,4.30
2019-03-04T23:25:19.823Z,3.40
2019-03-04T23:30:25.579Z,3.83
2019-03-04T23:35:31.347Z,1.80
2019-03-04T23:40:37.164Z,6.87
2019-03-04T23:45:42.866Z,5.23
2019-03-04T23:50:48.676Z,5.73
2019-03-04T23:55:54.337Z,8.17
